createdAt,value
2018-12-16T00:02:57.488Z,92.50
2018-12-16T00:06:05.495Z,92.50
2018-12-16T00:09:24.632Z,92.70
2018-12-16T00:12:32.235Z,92.70
2018-12-16T00:15:39.730Z,92.70
2018-12-16T00:18:47.315Z,92.90
2018-12-16T00:22:07.277Z,93.00
2018-12-16T00:25:28.810Z,93.10
2018-12-16T00:28:36.657Z,93.00
2018-12-16T00:31:44.140Z,92.80
2018-12-16T00:34:52.555Z,93.00
2018-12-16T00:38:00.447Z,92.80
2018-12-16T00:41:08.534Z,92.70
2018-12-16T00:44:16.075Z,92.60
2018-12-16T00:47:23.571Z,92.70
2018-12-16T00:50:43.495Z,92.80
2018-12-16T00:54:06.028Z,92.80
2018-12-16T00:57:13.879Z,92.90
2018-12-16T01:00:35.931Z,93.00
2018-12-16T01:03:43.431Z,93.20
2018-12-16T01:06:50.948Z,93.30
2018-12-16T01:09:58.552Z,93.40
2018-12-16T01:13:17.903Z,93.30
2018-12-16T01:16:28.269Z,93.50
2018-12-16T01:19:36.272Z,93.70
2018-12-16T01:22:44.147Z,93.80
2018-12-16T01:26:03.172Z,93.80
2018-12-16T01:29:11.211Z,93.80
2018-12-16T01:32:18.812Z,93.80
2018-12-16T01:35:26.376Z,93.90
2018-12-16T01:38:33.955Z,93.70
2018-12-16T01:41:41.467Z,93.90
2018-12-16T01:44:49.076Z,93.90
2018-12-16T01:47:56.592Z,93.90
2018-12-16T01:51:18.348Z,93.80
2018-12-16T01:54:25.875Z,93.70
2018-12-16T01:57:33.429Z,93.70
2018-12-16T02:00:52.311Z,93.80
2018-12-16T02:03:59.880Z,93.70
2018-12-16T02:07:07.872Z,93.60
2018-12-16T02:10:29.396Z,93.50
2018-12-16T02:13:36.988Z,93.60
2018-12-16T02:16:44.461Z,93.50
2018-12-16T02:19:52.885Z,93.30
2018-12-16T02:23:00.352Z,93.30
2018-12-16T02:26:07.880Z,93.10
2018-12-16T02:29:28.722Z,93.00
2018-12-16T02:32:36.205Z,93.30
2018-12-16T02:35:43.693Z,93.20
2018-12-16T02:38:51.720Z,93.10
2018-12-16T02:42:10.399Z,93.20
2018-12-16T02:45:19.373Z,93.20
2018-12-16T02:48:27.364Z,93.00
2018-12-16T02:51:35.303Z,92.90
2018-12-16T02:54:42.840Z,93.00
2018-12-16T02:57:50.440Z,92.80
2018-12-16T03:00:57.997Z,92.80
2018-12-16T03:04:05.960Z,93.10
2018-12-16T03:07:33.612Z,93.30
2018-12-16T03:10:56.099Z,93.10
2018-12-16T03:14:16.575Z,93.00
2018-12-16T03:17:24.448Z,93.00
2018-12-16T03:20:32.486Z,93.00
2018-12-16T03:23:40.056Z,93.20
2018-12-16T03:26:47.525Z,93.40
2018-12-16T03:29:55.173Z,93.10
2018-12-16T03:33:02.682Z,93.10
2018-12-16T03:36:22.329Z,93.10
2018-12-16T03:39:42.958Z,93.10
2018-12-16T03:43:02.615Z,93.40
2018-12-16T03:46:22.696Z,93.10
2018-12-16T03:49:47.202Z,93.40
2018-12-16T03:52:54.697Z,93.40
2018-12-16T03:56:02.196Z,93.40
2018-12-16T03:59:19.789Z,93.20
2018-12-16T04:02:27.351Z,93.30
2018-12-16T04:05:35.023Z,93.30
2018-12-16T04:08:42.655Z,93.20
2018-12-16T04:12:04.265Z,93.10
2018-12-16T04:15:12.368Z,93.00
2018-12-16T04:18:20.636Z,93.00
2018-12-16T04:21:28.202Z,93.10
2018-12-16T04:24:35.676Z,93.40
2018-12-16T04:27:57.294Z,93.10
2018-12-16T04:31:05.113Z,92.90
2018-12-16T04:34:13.247Z,92.90
2018-12-16T04:37:30.732Z,92.70
2018-12-16T04:40:38.276Z,92.50
2018-12-16T04:43:45.844Z,92.50
2018-12-16T04:46:53.629Z,92.20
2018-12-16T04:50:16.030Z,92.20
2018-12-16T04:53:38.219Z,92.20
2018-12-16T04:56:45.859Z,92.30
2018-12-16T04:59:53.499Z,92.00
2018-12-16T05:03:01.011Z,91.80
2018-12-16T05:06:08.530Z,91.90
2018-12-16T05:09:27.708Z,91.70
2018-12-16T05:12:35.171Z,91.20
2018-12-16T05:15:42.668Z,91.50
2018-12-16T05:18:50.224Z,91.50
2018-12-16T05:21:57.804Z,91.50
2018-12-16T05:25:05.804Z,91.60
2018-12-16T05:28:13.382Z,91.50
2018-12-16T05:31:20.899Z,91.60
2018-12-16T05:34:42.551Z,91.80
2018-12-16T05:38:04.125Z,91.60
2018-12-16T05:41:23.636Z,91.20
2018-12-16T05:44:44.040Z,91.30
2018-12-16T05:47:51.531Z,91.30
2018-12-16T05:50:59.127Z,91.10
2018-12-16T05:54:06.716Z,91.10
2018-12-16T05:57:14.222Z,91.00
2018-12-16T06:00:35.553Z,91.10
2018-12-16T06:03:43.159Z,91.10
2018-12-16T06:06:50.745Z,91.10
2018-12-16T06:09:58.382Z,91.20
2018-12-16T06:13:05.919Z,91.00
2018-12-16T06:16:26.063Z,90.80
2018-12-16T06:19:47.156Z,90.70
2018-12-16T06:22:54.676Z,90.70
2018-12-16T06:26:02.174Z,90.90
2018-12-16T06:29:09.971Z,90.90
2018-12-16T06:32:17.548Z,91.00
2018-12-16T06:35:37.366Z,91.00
2018-12-16T06:38:57.049Z,91.00
2018-12-16T06:42:04.650Z,91.00
2018-12-16T06:45:12.234Z,91.00
2018-12-16T06:48:20.558Z,91.00
2018-12-16T06:51:28.028Z,91.30
2018-12-16T06:54:35.500Z,91.50
2018-12-16T06:57:43.020Z,91.50
2018-12-16T07:00:50.636Z,91.50
2018-12-16T07:03:58.119Z,91.50
2018-12-16T07:07:05.653Z,91.60
2018-12-16T07:10:13.263Z,91.40
2018-12-16T07:13:21.102Z,91.50
2018-12-16T07:16:28.950Z,91.50
2018-12-16T07:19:36.507Z,91.50
2018-12-16T07:22:44.328Z,91.70
2018-12-16T07:25:52.067Z,91.80
2018-12-16T07:28:59.747Z,91.60
2018-12-16T07:32:07.324Z,91.60
2018-12-16T07:35:27.019Z,91.70
2018-12-16T07:38:34.617Z,91.50
2018-12-16T07:41:42.459Z,91.50
2018-12-16T07:44:50.000Z,91.40
2018-12-16T07:47:57.454Z,91.40
2018-12-16T07:51:05.327Z,91.40
2018-12-16T07:54:16.029Z,91.50
2018-12-16T07:57:35.163Z,91.40
2018-12-16T08:00:54.231Z,91.20
2018-12-16T08:04:18.232Z,91.20
2018-12-16T08:07:25.808Z,91.10
2018-12-16T08:10:34.123Z,91.10
2018-12-16T08:13:41.624Z,91.10
2018-12-16T08:16:49.120Z,91.00
2018-12-16T08:20:13.679Z,90.60
2018-12-16T08:23:21.211Z,90.70
2018-12-16T08:26:28.693Z,90.70
2018-12-16T08:29:49.693Z,90.70
2018-12-16T08:33:09.547Z,90.40
2018-12-16T08:36:18.067Z,90.40
2018-12-16T08:39:25.571Z,90.40
2018-12-16T08:42:33.151Z,90.10
2018-12-16T08:49:01.775Z,89.60
2018-12-16T08:52:22.461Z,89.50
2018-12-16T08:55:43.304Z,88.70
2018-12-16T08:58:50.983Z,88.90
2018-12-16T09:01:58.436Z,88.00
2018-12-16T09:08:26.463Z,87.50
2018-12-16T09:11:47.970Z,86.20
2018-12-16T09:18:15.053Z,86.70
2018-12-16T09:21:22.500Z,86.30
2018-12-16T09:24:36.910Z,86.00
2018-12-16T09:27:51.085Z,85.90
2018-12-16T09:31:11.958Z,85.40
2018-12-16T09:34:19.480Z,85.30
2018-12-16T09:37:26.944Z,85.00
2018-12-16T09:43:51.912Z,85.00
2018-12-16T09:47:13.423Z,84.80
2018-12-16T09:50:20.951Z,84.50
2018-12-16T09:53:28.451Z,83.90
2018-12-16T09:59:55.147Z,83.70
2018-12-16T10:03:02.788Z,83.50
2018-12-16T10:09:27.976Z,82.90
2018-12-16T10:12:35.744Z,83.10
2018-12-16T10:19:01.772Z,83.40
2018-12-16T10:22:21.786Z,83.30
2018-12-16T10:25:43.639Z,82.80
2018-12-16T10:28:51.245Z,82.60
2018-12-16T10:35:17.652Z,82.60
2018-12-16T10:38:37.169Z,83.40
2018-12-16T10:41:57.244Z,82.60
2018-12-16T10:45:17.267Z,82.50
2018-12-16T10:48:38.625Z,82.30
2018-12-16T10:51:58.299Z,82.20
2018-12-16T10:55:18.517Z,82.50
2018-12-16T10:58:38.652Z,82.20
2018-12-16T11:01:58.121Z,81.90
2018-12-16T11:05:17.803Z,81.90
2018-12-16T11:08:26.151Z,81.80
2018-12-16T11:14:52.552Z,81.60
2018-12-16T11:18:11.607Z,81.40
2018-12-16T11:21:31.696Z,81.50
2018-12-16T11:24:51.712Z,80.50
2018-12-16T11:28:11.466Z,80.40
2018-12-16T11:31:32.090Z,80.30
2018-12-16T11:34:54.467Z,80.60
2018-12-16T11:38:01.904Z,80.60
2018-12-16T11:44:27.603Z,80.50
2018-12-16T11:47:48.236Z,80.10
2018-12-16T11:50:55.795Z,80.70
2018-12-16T11:54:03.240Z,80.50
2018-12-16T12:00:29.311Z,80.70
2018-12-16T12:03:50.852Z,80.30
2018-12-16T12:07:10.344Z,80.50
2018-12-16T12:10:30.482Z,79.80
2018-12-16T12:13:38.507Z,79.90
2018-12-16T12:16:46.062Z,79.20
2018-12-16T12:20:06.008Z,79.30
2018-12-16T12:23:26.479Z,80.20
2018-12-16T12:26:47.992Z,80.30
2018-12-16T12:29:55.888Z,79.80
2018-12-16T12:33:03.449Z,79.50
2018-12-16T12:36:29.002Z,78.80
2018-12-16T12:39:54.424Z,78.90
2018-12-16T12:43:17.363Z,79.40
2018-12-16T12:46:24.881Z,79.80
2018-12-16T12:49:32.423Z,80.10
2018-12-16T12:52:39.960Z,80.40
2018-12-16T12:56:01.352Z,81.00
2018-12-16T12:59:25.145Z,80.80
2018-12-16T13:02:32.637Z,81.10
2018-12-16T13:05:40.110Z,80.70
2018-12-16T13:08:47.992Z,80.90
2018-12-16T13:12:10.792Z,81.10
2018-12-16T13:15:33.195Z,80.60
2018-12-16T13:18:55.635Z,81.00
2018-12-16T13:22:17.000Z,81.30
2018-12-16T13:25:54.411Z,81.20
2018-12-16T13:29:02.002Z,80.40
2018-12-16T13:32:09.633Z,80.70
2018-12-16T13:35:17.087Z,80.80
2018-12-16T13:38:25.108Z,81.20
2018-12-16T13:41:32.692Z,80.60
2018-12-16T13:44:53.932Z,81.20
2018-12-16T13:48:01.432Z,81.00
2018-12-16T13:51:09.015Z,80.90
2018-12-16T13:54:32.284Z,80.80
2018-12-16T13:57:57.329Z,81.10
2018-12-16T14:01:05.284Z,80.70
2018-12-16T14:04:12.839Z,80.60
2018-12-16T14:07:35.665Z,81.10
2018-12-16T14:10:43.140Z,81.60
2018-12-16T14:13:51.155Z,81.30
2018-12-16T14:16:58.743Z,81.10
2018-12-16T14:20:09.012Z,81.20
2018-12-16T14:23:16.548Z,81.00
2018-12-16T14:26:24.096Z,81.10
2018-12-16T14:29:31.719Z,80.80
2018-12-16T14:32:55.504Z,80.80
2018-12-16T14:36:02.990Z,81.00
2018-12-16T14:39:10.600Z,83.40
2018-12-16T14:42:18.142Z,85.30
2018-12-16T14:45:39.116Z,85.80
2018-12-16T14:48:46.700Z,86.90
2018-12-16T14:51:54.177Z,87.50
2018-12-16T14:55:01.651Z,88.00
2018-12-16T14:58:20.479Z,88.80
2018-12-16T15:01:27.931Z,87.70
2018-12-16T15:04:35.481Z,88.60
2018-12-16T15:07:42.953Z,89.30
2018-12-16T15:10:51.367Z,90.00
2018-12-16T15:13:58.832Z,90.00
2018-12-16T15:17:06.363Z,90.20
2018-12-16T15:20:14.360Z,90.30
2018-12-16T15:23:21.867Z,90.50
2018-12-16T15:26:29.364Z,90.40
2018-12-16T15:29:36.964Z,90.20
2018-12-16T15:33:00.927Z,90.20
2018-12-16T15:36:08.439Z,90.00
2018-12-16T15:39:16.259Z,90.00
2018-12-16T15:42:23.727Z,89.70
2018-12-16T15:45:45.062Z,90.00
2018-12-16T15:48:52.583Z,90.30
2018-12-16T15:52:00.024Z,90.40
2018-12-16T15:55:11.064Z,90.10
2018-12-16T15:58:19.063Z,90.00
2018-12-16T16:01:27.047Z,90.00
2018-12-16T16:04:34.548Z,89.60
2018-12-16T16:07:42.056Z,89.40
2018-12-16T16:10:49.695Z,88.40
2018-12-16T16:14:12.603Z,88.50
2018-12-16T16:17:36.091Z,87.70
2018-12-16T16:20:43.705Z,87.00
2018-12-16T16:23:51.509Z,87.00
2018-12-16T16:26:59.099Z,87.40
2018-12-16T16:30:21.657Z,87.60
2018-12-16T16:33:43.060Z,87.20
2018-12-16T16:37:05.431Z,87.00
2018-12-16T16:40:27.971Z,86.90
2018-12-16T16:43:35.421Z,86.90
2018-12-16T16:47:05.675Z,87.10
2018-12-16T16:50:26.673Z,87.90
2018-12-16T16:53:34.116Z,87.90
2018-12-16T16:59:59.699Z,88.20
2018-12-16T17:03:07.181Z,88.30
2018-12-16T17:06:14.683Z,89.10
2018-12-16T17:09:22.399Z,88.60
2018-12-16T17:12:43.352Z,88.60
2018-12-16T17:15:53.105Z,88.70
2018-12-16T17:19:11.060Z,88.80
2018-12-16T17:22:33.481Z,88.60
2018-12-16T17:25:51.924Z,88.50
2018-12-16T17:28:59.451Z,89.40
2018-12-16T17:35:32.013Z,89.00
2018-12-16T17:38:39.549Z,89.00
2018-12-16T17:45:09.951Z,90.10
2018-12-16T17:48:30.740Z,90.50
2018-12-16T17:51:38.304Z,90.70
2018-12-16T17:54:45.769Z,91.30
2018-12-16T18:01:14.307Z,91.70
2018-12-16T18:04:33.621Z,91.70
2018-12-16T18:07:54.506Z,91.50
2018-12-16T18:11:02.080Z,92.00
2018-12-16T18:14:10.005Z,92.70
2018-12-16T18:17:29.889Z,92.50
2018-12-16T18:20:37.403Z,92.80
2018-12-16T18:23:45.329Z,92.80
2018-12-16T18:30:12.481Z,92.60
2018-12-16T18:33:20.524Z,92.70
2018-12-16T18:36:28.155Z,92.80
2018-12-16T18:39:48.404Z,93.40
2018-12-16T18:43:07.512Z,93.90
2018-12-16T18:46:26.445Z,93.60
2018-12-16T18:49:50.056Z,93.30
2018-12-16T18:52:57.670Z,93.60
2018-12-16T18:56:05.664Z,93.10
2018-12-16T18:59:13.854Z,93.10
2018-12-16T19:02:35.323Z,93.20
2018-12-16T19:05:56.455Z,93.20
2018-12-16T19:09:16.449Z,93.20
2018-12-16T19:12:23.996Z,92.60
2018-12-16T19:15:31.483Z,92.80
2018-12-16T19:21:59.752Z,93.00
2018-12-16T19:28:26.827Z,92.50
2018-12-16T19:31:35.868Z,92.80
2018-12-16T19:34:43.842Z,93.00
2018-12-16T19:41:10.868Z,92.70
2018-12-16T19:44:18.430Z,92.90
2018-12-16T19:50:47.516Z,92.70
2018-12-16T19:53:55.271Z,92.70
2018-12-16T20:00:21.902Z,92.70
2018-12-16T20:03:30.051Z,92.80
2018-12-16T20:06:42.770Z,93.10
2018-12-16T20:09:50.444Z,93.50
2018-12-16T20:16:15.756Z,93.80
2018-12-16T20:19:36.691Z,94.00
2018-12-16T20:22:57.443Z,94.10
2018-12-16T20:26:17.677Z,94.50
2018-12-16T20:29:37.417Z,94.70
2018-12-16T20:32:57.015Z,94.90
2018-12-16T20:36:20.593Z,94.90
2018-12-16T20:39:28.847Z,95.20
2018-12-16T20:42:48.670Z,94.90
2018-12-16T20:45:56.586Z,95.00
2018-12-16T20:49:04.228Z,94.60
2018-12-16T20:55:30.668Z,94.90
2018-12-16T21:01:59.234Z,94.90
2018-12-16T21:05:19.317Z,95.10
2018-12-16T21:08:39.439Z,95.00
2018-12-16T21:11:52.244Z,95.00
2018-12-16T21:15:04.935Z,95.30
2018-12-16T21:18:31.429Z,95.00
2018-12-16T21:21:38.971Z,95.50
2018-12-16T21:24:46.724Z,95.40
2018-12-16T21:31:12.516Z,95.40
2018-12-16T21:34:32.721Z,95.20
2018-12-16T21:40:57.260Z,95.30
2018-12-16T21:44:16.959Z,95.30
2018-12-16T21:47:38.347Z,95.50
2018-12-16T21:50:59.760Z,95.70
2018-12-16T21:54:20.348Z,95.30
2018-12-16T21:57:39.228Z,95.40
2018-12-16T22:01:01.664Z,95.40
2018-12-16T22:04:21.241Z,95.40
2018-12-16T22:07:41.882Z,95.90
2018-12-16T22:10:49.487Z,95.90
2018-12-16T22:13:57.063Z,96.10
2018-12-16T22:17:04.745Z,95.90
2018-12-16T22:20:12.392Z,95.50
2018-12-16T22:26:38.019Z,94.80
2018-12-16T22:29:57.848Z,95.10
2018-12-16T22:33:19.272Z,95.10
2018-12-16T22:36:27.160Z,95.60
2018-12-16T22:39:34.787Z,95.40
2018-12-16T22:42:42.310Z,95.50
2018-12-16T22:45:49.813Z,95.10
2018-12-16T22:52:15.336Z,95.40
2018-12-16T22:55:35.532Z,94.70
2018-12-16T22:58:55.395Z,95.10
2018-12-16T23:02:15.336Z,95.00
2018-12-16T23:05:35.900Z,95.00
2018-12-16T23:12:02.540Z,94.60
2018-12-16T23:15:23.424Z,94.70
2018-12-16T23:21:50.340Z,95.00
2018-12-16T23:25:11.149Z,95.40
2018-12-16T23:31:38.140Z,95.30
2018-12-16T23:34:58.652Z,95.30
2018-12-16T23:38:06.168Z,95.40
2018-12-16T23:41:13.796Z,95.70
2018-12-16T23:44:21.310Z,95.50
2018-12-16T23:47:42.273Z,95.70
2018-12-16T23:51:03.467Z,95.60
2018-12-16T23:54:10.983Z,95.30
2018-12-16T23:57:18.476Z,95.20
